Barnstable Municipal Boardman Polando Field
KHYA : now visible

Airfield :











YOU CAN JOIN US ON...

 
LOGIN :

Register | Disclaimer

   EN    FR    IT 

 









Legend :    VFR   Marginal VFR   IFR   Intensive IFR   Very Intensive IFR
Visi :
Ceiling :
>= 8 km
>= 3000ft
5 to 8 km
1000 to 3000 ft
1500m to 5 km
500 to 1000 ft
800 to 1500m
200 to 500 ft
< 800m
< 200 ft
Symbols :   Thunderstorms  Fog  Heavy snow  Heavy precipitations  Wind > 20 kt






- Airport Elevation : 54 ft
- IATA code : HYA


KHYA - Barnstable Municipal Boardman Polando Field

CURRENT METAR :
  • 250756Z AUTO 33012G19KT 10SM SCT024 BKN033 BKN049 17/16 A2967 RMK AO2 RAE08 SLP048 P0000 T01720156

EXPIRED METARs :
  • 250656Z AUTO 32008G18KT 9SM -RA OVC017 17/16 A2965 RMK AO2 RAB28 SLP042 P0001 T01720161
  • 250556Z AUTO 33010G21KT 7SM FEW005 OVC011 17/16 A2964 RMK AO2 RAB04E56 SLP036 P0000 60000 T01670161 10228 20167 51012
  • 250532Z AUTO 33010G19KT 5SM -RA BR OVC004 17/17 A2963 RMK AO2 RAB04 P0000 T01720167
  • 250456Z AUTO 34012G19KT 10SM OVC008 17/16 A2963 RMK AO2 PK WND 35032/0410 CIG 006V010 SLP035 T01720161 402720172
  • 250436Z AUTO 34012G21KT 10SM BKN008 BKN014 OVC110 18/17 A2962 RMK AO2 PK WND 35032/0410 CIG 006V011 T01780167
  • 250356Z AUTO 33009KT 10SM FEW032 BKN100 19/15 A2960 RMK AO2 SLP024 T01940150

TAF KHYA
Valid from the 25 at 06:00 until the 26 at 06:00 UTC


250543Z 2506/2606 33015G25KT 6SM -SHRA BR OVC004
FM250800 33014G25KT P6SM SCT004 BKN035
FM251500 32010KT P6SM SKC
FM251800 26008G15KT P6SM SKC
FM252300 23011KT P6SM FEW250
KZBW FIR / North America



MET'MAP, your aeronautical weather chart ! - Copyright ORBIFLY December 2007 - Disclaimer

ORBIFLY MET'MAP TEAM :

Programming & Development : Alexandra Zaïnal
Original concept : Baudouin d'Aumeries
Technical & hardware support : Manuel Goepfert
Assistance : Marc-Olivier Méhu




SOURCES & CREDITS :

   NOAA       Earth
Advisory